createdAt,value
2022-11-06T00:01:08.473Z,6.47
2022-11-06T00:03:36.324Z,4.70
2022-11-06T00:06:39.913Z,4.70
2022-11-06T00:09:09.938Z,5.33
2022-11-06T00:11:37.110Z,5.70
2022-11-06T00:14:04.002Z,5.57
2022-11-06T00:16:30.533Z,4.77
2022-11-06T00:19:00.496Z,5.37
2022-11-06T00:21:29.236Z,5.00
2022-11-06T00:23:58.601Z,5.20
2022-11-06T00:26:27.097Z,4.97
2022-11-06T00:28:54.303Z,5.30
2022-11-06T00:31:24.143Z,5.20
2022-11-06T00:33:51.114Z,5.63
2022-11-06T00:36:20.268Z,5.97
2022-11-06T00:38:56.042Z,5.80
2022-11-06T00:41:26.759Z,6.57
2022-11-06T00:44:01.274Z,7.20
2022-11-06T00:46:29.203Z,6.00
2022-11-06T00:48:56.316Z,5.57
2022-11-06T00:51:32.015Z,5.07
2022-11-06T00:54:01.662Z,4.10
2022-11-06T00:56:28.809Z,4.97
2022-11-06T00:58:56.526Z,6.10
2022-11-06T01:01:25.934Z,6.37
2022-11-06T01:04:07.485Z,5.60
2022-11-06T01:06:38.195Z,5.27
2022-11-06T01:09:06.381Z,4.73
2022-11-06T01:11:59.388Z,4.33
2022-11-06T01:14:23.645Z,4.60
2022-11-06T01:16:51.043Z,5.00
2022-11-06T01:19:19.565Z,5.93
2022-11-06T01:21:48.218Z,5.07
2022-11-06T01:24:23.183Z,5.47
2022-11-06T01:27:12.543Z,5.87
2022-11-06T01:29:36.704Z,5.03
2022-11-06T01:32:03.453Z,5.10
2022-11-06T01:34:30.008Z,4.70
2022-11-06T01:36:56.615Z,5.63
2022-11-06T01:39:23.151Z,6.20
2022-11-06T01:41:51.845Z,6.57
2022-11-06T01:44:33.735Z,5.63
2022-11-06T01:47:03.629Z,5.50
2022-11-06T01:49:36.151Z,5.77
2022-11-06T01:52:08.913Z,5.70
2022-11-06T01:54:38.241Z,5.90
2022-11-06T01:57:05.956Z,5.23
2022-11-06T01:59:35.732Z,5.00
2022-11-06T02:02:02.598Z,5.07
2022-11-06T02:04:34.529Z,5.80
2022-11-06T02:07:01.396Z,4.27
2022-11-06T02:09:30.344Z,4.57
2022-11-06T02:12:21.674Z,5.47
2022-11-06T02:14:57.823Z,4.07
2022-11-06T02:17:24.346Z,5.20
2022-11-06T02:19:57.058Z,4.30
2022-11-06T02:23:00.526Z,6.47
2022-11-06T02:25:36.049Z,3.87
2022-11-06T02:28:10.352Z,4.53
2022-11-06T02:30:44.006Z,4.20
2022-11-06T02:33:16.551Z,4.03
2022-11-06T02:35:53.226Z,4.80
2022-11-06T02:38:29.015Z,4.67
2022-11-06T02:40:58.914Z,4.60
2022-11-06T02:43:38.141Z,4.20
2022-11-06T02:46:18.610Z,4.33
2022-11-06T02:48:49.512Z,4.00
2022-11-06T02:51:21.730Z,4.30
2022-11-06T02:53:49.126Z,4.30
2022-11-06T02:56:20.996Z,4.37
2022-11-06T02:59:04.719Z,4.50
2022-11-06T03:01:37.314Z,4.20
2022-11-06T03:04:11.671Z,4.03
2022-11-06T03:06:44.436Z,4.50
2022-11-06T03:09:25.648Z,4.10
2022-11-06T03:11:59.508Z,4.23
2022-11-06T03:14:38.646Z,3.70
2022-11-06T03:17:22.886Z,4.20
2022-11-06T03:19:59.180Z,4.70
2022-11-06T03:22:44.005Z,3.97
2022-11-06T03:25:19.716Z,3.70
2022-11-06T03:28:02.499Z,5.00
2022-11-06T03:30:29.716Z,4.20
2022-11-06T03:33:09.365Z,4.23
2022-11-06T03:35:43.740Z,3.40
2022-11-06T03:38:27.945Z,4.50
2022-11-06T03:41:01.921Z,4.07
2022-11-06T03:43:32.269Z,3.47
2022-11-06T03:46:01.508Z,4.10
2022-11-06T03:49:02.767Z,3.73
2022-11-06T03:52:00.134Z,4.00
2022-11-06T03:54:31.055Z,3.13
2022-11-06T03:57:07.818Z,3.80
2022-11-06T03:59:39.681Z,4.93
2022-11-06T04:02:07.333Z,5.00
2022-11-06T04:04:57.239Z,4.90
2022-11-06T04:07:28.539Z,3.73
2022-11-06T04:10:19.461Z,4.83
2022-11-06T04:13:08.181Z,4.33
2022-11-06T04:15:45.366Z,3.30
2022-11-06T04:18:14.445Z,4.03
2022-11-06T04:21:10.388Z,3.90
2022-11-06T04:24:13.010Z,4.37
2022-11-06T04:26:53.970Z,3.67
2022-11-06T04:29:31.574Z,3.07
2022-11-06T04:31:58.039Z,3.47
2022-11-06T04:34:43.192Z,4.20
2022-11-06T04:37:21.334Z,3.50
2022-11-06T04:40:08.747Z,3.90
2022-11-06T04:42:50.449Z,3.37
2022-11-06T04:45:48.978Z,3.20
2022-11-06T04:48:18.240Z,3.67
2022-11-06T04:50:51.634Z,3.23
2022-11-06T04:53:20.191Z,4.40
2022-11-06T04:55:48.972Z,3.30
2022-11-06T04:58:16.103Z,3.57
2022-11-06T05:00:47.675Z,3.40
2022-11-06T05:03:15.642Z,3.27
2022-11-06T05:05:43.048Z,4.07
2022-11-06T05:08:20.242Z,4.10
2022-11-06T05:10:47.676Z,4.43
2022-11-06T05:13:15.256Z,3.20
2022-11-06T05:15:42.246Z,3.60
2022-11-06T05:18:08.787Z,3.87
2022-11-06T05:20:35.890Z,3.20
2022-11-06T05:23:02.689Z,3.20
2022-11-06T05:25:35.126Z,3.30
2022-11-06T05:28:03.223Z,3.33
2022-11-06T05:30:29.734Z,3.90
2022-11-06T05:32:56.253Z,3.30
2022-11-06T05:35:22.923Z,3.67
2022-11-06T05:37:49.543Z,3.70
2022-11-06T05:40:16.175Z,3.40
2022-11-06T05:42:44.945Z,3.20
2022-11-06T05:45:12.598Z,3.60
2022-11-06T05:47:42.087Z,3.40
2022-11-06T05:50:10.297Z,3.90
2022-11-06T05:52:37.492Z,2.67
2022-11-06T05:55:08.856Z,3.67
2022-11-06T05:57:38.269Z,3.30
2022-11-06T06:00:06.624Z,2.60
2022-11-06T06:02:39.642Z,2.90
2022-11-06T06:05:07.297Z,3.37
2022-11-06T06:07:34.117Z,3.60
2022-11-06T06:10:00.903Z,2.83
2022-11-06T06:12:27.407Z,2.87
2022-11-06T06:14:54.203Z,3.23
2022-11-06T06:17:20.961Z,3.00
2022-11-06T06:19:48.202Z,2.43
2022-11-06T06:22:14.685Z,3.80
2022-11-06T06:24:41.814Z,3.00
2022-11-06T06:27:08.719Z,3.07
2022-11-06T06:29:35.718Z,3.47
2022-11-06T06:32:03.850Z,2.93
2022-11-06T06:34:30.391Z,3.03
2022-11-06T06:36:56.927Z,3.20
2022-11-06T06:39:23.493Z,3.00
2022-11-06T06:41:50.094Z,3.10
2022-11-06T06:44:16.912Z,3.00
2022-11-06T06:46:43.745Z,2.80
2022-11-06T06:49:10.409Z,2.67
2022-11-06T06:51:37.019Z,2.63
2022-11-06T06:54:03.943Z,2.67
2022-11-06T06:56:30.507Z,2.67
2022-11-06T06:58:57.045Z,2.73
2022-11-06T07:01:23.660Z,3.57
2022-11-06T07:03:50.366Z,3.30
2022-11-06T07:06:19.315Z,3.40
2022-11-06T07:08:45.950Z,3.40
2022-11-06T07:11:12.618Z,3.77
2022-11-06T07:13:39.144Z,3.30
2022-11-06T07:16:07.662Z,3.30
2022-11-06T07:18:35.191Z,3.17
2022-11-06T07:21:05.561Z,4.17
2022-11-06T07:23:32.152Z,3.63
2022-11-06T07:25:58.627Z,3.60
2022-11-06T07:28:25.299Z,3.03
2022-11-06T07:30:52.044Z,3.40
2022-11-06T07:33:18.575Z,3.67
2022-11-06T07:35:45.138Z,3.77
2022-11-06T07:38:11.901Z,3.83
2022-11-06T07:40:38.735Z,3.77
2022-11-06T07:43:10.487Z,3.87
2022-11-06T07:45:38.844Z,3.80
2022-11-06T07:48:06.483Z,3.70
2022-11-06T07:50:33.031Z,4.30
2022-11-06T07:53:03.076Z,4.40
2022-11-06T07:55:29.890Z,4.33
2022-11-06T07:57:58.789Z,3.80
2022-11-06T08:00:25.403Z,4.30
2022-11-06T08:02:53.234Z,4.93
2022-11-06T08:05:20.501Z,5.97
2022-11-06T08:07:47.204Z,5.37
2022-11-06T08:10:14.019Z,7.70
2022-11-06T08:12:40.863Z,11.57
2022-11-06T08:15:07.640Z,7.43
2022-11-06T08:17:34.144Z,6.40
2022-11-06T08:20:00.697Z,5.00
2022-11-06T08:22:27.294Z,5.63
2022-11-06T08:24:53.840Z,5.83
2022-11-06T08:27:20.475Z,7.00
2022-11-06T08:29:47.019Z,8.30
2022-11-06T08:32:13.497Z,9.10
2022-11-06T08:34:40.150Z,8.40
2022-11-06T08:37:06.705Z,8.70
2022-11-06T08:39:33.261Z,9.33
2022-11-06T08:41:59.751Z,9.47
2022-11-06T08:44:26.351Z,9.50
2022-11-06T08:46:52.962Z,9.33
2022-11-06T08:49:19.821Z,9.73
2022-11-06T08:51:46.844Z,9.77
2022-11-06T08:54:13.708Z,15.77
2022-11-06T08:56:40.353Z,11.77
2022-11-06T08:59:07.061Z,9.57
2022-11-06T09:01:33.778Z,10.97
2022-11-06T09:04:00.474Z,11.53
2022-11-06T09:06:27.093Z,10.00
2022-11-06T09:08:53.694Z,9.63
2022-11-06T09:11:20.266Z,8.80
2022-11-06T09:13:47.150Z,11.20
2022-11-06T09:16:16.153Z,11.37
2022-11-06T09:18:43.582Z,10.50
2022-11-06T09:21:10.448Z,9.00
2022-11-06T09:23:37.416Z,9.67
2022-11-06T09:26:04.122Z,9.67
2022-11-06T09:28:30.867Z,9.10
2022-11-06T09:30:57.453Z,10.40
2022-11-06T09:33:24.112Z,8.47
2022-11-06T09:35:50.690Z,9.50
2022-11-06T09:38:17.323Z,9.87
2022-11-06T09:40:51.404Z,11.33
2022-11-06T09:44:12.423Z,9.67
2022-11-06T09:46:45.535Z,10.77
2022-11-06T09:49:17.846Z,11.53
2022-11-06T09:51:52.986Z,8.70
2022-11-06T09:54:29.715Z,9.60
2022-11-06T09:57:03.256Z,10.70
2022-11-06T09:59:35.966Z,10.40
2022-11-06T10:02:04.738Z,9.27
2022-11-06T10:04:41.951Z,10.20
2022-11-06T10:07:29.300Z,9.60
2022-11-06T10:09:56.881Z,8.67
2022-11-06T10:12:29.741Z,9.87
2022-11-06T10:15:07.575Z,9.53
2022-11-06T10:18:02.611Z,8.50
2022-11-06T10:20:39.447Z,9.17
2022-11-06T10:23:18.822Z,8.80
2022-11-06T10:26:04.704Z,7.70
2022-11-06T10:28:42.664Z,7.70
2022-11-06T10:31:28.251Z,9.03
2022-11-06T10:34:02.495Z,8.50
2022-11-06T10:36:37.143Z,6.30
2022-11-06T10:39:10.349Z,6.83
2022-11-06T10:41:39.133Z,7.20
2022-11-06T10:44:24.545Z,8.57
2022-11-06T10:47:04.794Z,6.50
2022-11-06T10:49:53.235Z,7.10
2022-11-06T10:52:25.955Z,6.83
2022-11-06T10:55:39.727Z,7.03
2022-11-06T10:58:15.451Z,8.10
2022-11-06T11:00:42.522Z,7.80
2022-11-06T11:03:37.027Z,6.83
2022-11-06T11:06:04.919Z,6.90
2022-11-06T11:08:37.647Z,6.70
2022-11-06T11:11:16.515Z,5.93
2022-11-06T11:13:48.924Z,6.93
2022-11-06T11:16:28.171Z,5.60
2022-11-06T11:19:13.840Z,4.73
2022-11-06T11:22:02.121Z,4.97
2022-11-06T11:24:29.327Z,4.30
2022-11-06T11:27:03.895Z,5.00
2022-11-06T11:29:44.763Z,5.47
2022-11-06T11:32:15.968Z,4.70
2022-11-06T11:34:53.879Z,5.50
2022-11-06T11:37:32.176Z,3.67
2022-11-06T11:40:19.533Z,3.60
2022-11-06T11:42:46.140Z,3.00
2022-11-06T11:45:16.299Z,3.40
2022-11-06T11:47:46.760Z,2.83
2022-11-06T11:50:16.427Z,3.10
2022-11-06T11:52:48.304Z,3.40
2022-11-06T11:55:17.592Z,2.80
2022-11-06T11:57:46.953Z,2.63
2022-11-06T12:00:18.850Z,2.57
2022-11-06T12:02:53.777Z,2.90
2022-11-06T12:05:30.873Z,3.07
2022-11-06T12:07:59.165Z,3.10
2022-11-06T12:10:28.659Z,2.40
2022-11-06T12:12:56.741Z,2.80
2022-11-06T12:15:45.123Z,2.50
2022-11-06T12:18:16.491Z,4.17
2022-11-06T12:21:12.598Z,3.77
2022-11-06T12:23:51.516Z,3.47
2022-11-06T12:26:34.350Z,2.73
2022-11-06T12:29:17.236Z,3.03
2022-11-06T12:32:07.279Z,3.30
2022-11-06T12:34:42.802Z,2.80
2022-11-06T12:37:35.388Z,2.63
2022-11-06T12:40:16.764Z,2.67
2022-11-06T12:42:56.641Z,2.60
2022-11-06T12:45:29.442Z,2.90
2022-11-06T12:48:19.388Z,2.40
2022-11-06T12:50:57.696Z,2.83
2022-11-06T12:53:44.052Z,3.00
2022-11-06T12:56:25.532Z,2.70
2022-11-06T12:59:04.287Z,2.53
2022-11-06T13:01:52.890Z,2.80
2022-11-06T13:04:35.166Z,2.20
2022-11-06T13:07:24.861Z,3.07
2022-11-06T13:10:05.935Z,2.43
2022-11-06T13:12:53.676Z,2.50
2022-11-06T13:15:39.117Z,2.33
2022-11-06T13:18:16.903Z,2.27
2022-11-06T13:21:00.972Z,2.10
2022-11-06T13:24:07.793Z,2.53
2022-11-06T13:26:48.998Z,2.00
2022-11-06T13:29:19.150Z,2.33
2022-11-06T13:31:54.994Z,2.43
2022-11-06T13:34:29.246Z,2.70
2022-11-06T13:36:56.732Z,2.93
2022-11-06T13:39:34.658Z,2.70
2022-11-06T13:42:03.323Z,2.53
2022-11-06T13:44:30.845Z,3.10
2022-11-06T13:47:19.833Z,2.83
2022-11-06T13:49:46.559Z,3.17
2022-11-06T13:52:21.440Z,2.50
2022-11-06T13:54:47.957Z,3.73
2022-11-06T13:57:26.973Z,2.67
2022-11-06T14:00:09.975Z,3.00
2022-11-06T14:02:45.773Z,2.90
2022-11-06T14:05:40.580Z,2.83
2022-11-06T14:08:15.024Z,3.23
2022-11-06T14:10:50.134Z,2.50
2022-11-06T14:13:16.945Z,3.17
2022-11-06T14:15:43.720Z,3.00
2022-11-06T14:18:21.176Z,2.87
2022-11-06T14:20:47.946Z,2.83
2022-11-06T14:23:29.942Z,2.60
2022-11-06T14:26:11.599Z,2.93
2022-11-06T14:28:43.303Z,2.50
2022-11-06T14:31:13.972Z,2.67
2022-11-06T14:33:44.736Z,2.90
2022-11-06T14:36:26.005Z,2.20
2022-11-06T14:38:53.625Z,2.50
2022-11-06T14:41:35.442Z,2.90
2022-11-06T14:44:06.480Z,2.93
2022-11-06T14:46:33.519Z,3.03
2022-11-06T14:49:20.536Z,2.60
2022-11-06T14:51:59.134Z,2.57
2022-11-06T14:54:26.060Z,3.23
2022-11-06T14:56:54.410Z,1.87
2022-11-06T14:59:36.810Z,2.10
2022-11-06T15:02:24.803Z,2.50
2022-11-06T15:05:05.412Z,2.23
2022-11-06T15:08:03.785Z,2.80
2022-11-06T15:10:43.029Z,3.30
2022-11-06T15:13:24.451Z,2.70
2022-11-06T15:15:55.652Z,2.40
2022-11-06T15:18:24.894Z,3.00
2022-11-06T15:20:58.461Z,2.90
2022-11-06T15:23:31.273Z,2.60
2022-11-06T15:26:28.378Z,2.70
2022-11-06T15:29:00.940Z,2.23
2022-11-06T15:31:29.845Z,2.67
2022-11-06T15:34:04.667Z,2.73
2022-11-06T15:36:43.338Z,3.30
2022-11-06T15:39:34.114Z,2.80
2022-11-06T15:42:00.688Z,2.93
2022-11-06T15:44:27.537Z,2.73
2022-11-06T15:46:56.090Z,2.77
2022-11-06T15:49:22.948Z,2.83
2022-11-06T15:52:03.148Z,3.80
2022-11-06T15:54:39.994Z,2.53
2022-11-06T15:57:33.511Z,2.30
2022-11-06T16:00:18.248Z,2.10
2022-11-06T16:03:01.580Z,2.47
2022-11-06T16:05:31.056Z,2.60
2022-11-06T16:08:00.132Z,3.30
2022-11-06T16:10:27.612Z,2.93
2022-11-06T16:12:55.568Z,2.60
2022-11-06T16:15:48.681Z,3.47
2022-11-06T16:18:24.321Z,3.70
2022-11-06T16:21:09.359Z,2.87
2022-11-06T16:23:42.816Z,2.83
2022-11-06T16:26:13.967Z,2.37
2022-11-06T16:28:46.120Z,2.60
2022-11-06T16:31:22.635Z,3.27
2022-11-06T16:34:00.353Z,3.20
2022-11-06T16:36:29.495Z,2.73
2022-11-06T16:39:35.301Z,2.70
2022-11-06T16:42:16.640Z,2.73
2022-11-06T16:44:43.126Z,3.20
2022-11-06T16:47:09.659Z,3.00
2022-11-06T16:49:38.793Z,3.50
2022-11-06T16:52:21.882Z,2.77
2022-11-06T16:54:50.466Z,2.90
2022-11-06T16:57:26.376Z,3.00
2022-11-06T17:00:08.669Z,4.87
2022-11-06T17:02:37.947Z,3.50
2022-11-06T17:05:21.487Z,3.57
2022-11-06T17:07:48.849Z,3.03
2022-11-06T17:10:39.383Z,4.33
2022-11-06T17:13:14.843Z,6.97
2022-11-06T17:15:43.782Z,5.37
2022-11-06T17:18:17.815Z,4.70
2022-11-06T17:20:48.943Z,4.40
2022-11-06T17:23:16.610Z,4.33
2022-11-06T17:25:45.019Z,4.00
2022-11-06T17:28:11.585Z,3.40
2022-11-06T17:30:39.139Z,3.60
2022-11-06T17:33:05.736Z,2.90
2022-11-06T17:35:33.049Z,2.87
2022-11-06T17:38:04.516Z,2.47
2022-11-06T17:40:33.767Z,5.20
2022-11-06T17:43:00.329Z,5.07
2022-11-06T17:45:26.893Z,4.67
2022-11-06T17:47:53.531Z,4.23
2022-11-06T17:50:20.610Z,3.60
2022-11-06T17:52:47.239Z,3.40
2022-11-06T17:55:13.867Z,3.30
2022-11-06T17:57:40.620Z,3.83
2022-11-06T18:00:07.948Z,2.90
2022-11-06T18:02:59.858Z,3.47
2022-11-06T18:05:24.286Z,3.53
2022-11-06T18:07:51.126Z,4.10
2022-11-06T18:10:17.613Z,4.90
2022-11-06T18:12:44.608Z,3.50
2022-11-06T18:15:11.219Z,4.47
2022-11-06T18:17:37.772Z,5.30
2022-11-06T18:20:05.095Z,4.70
2022-11-06T18:22:31.755Z,5.73
2022-11-06T18:24:58.294Z,4.00
2022-11-06T18:27:24.854Z,4.20
2022-11-06T18:29:51.449Z,3.97
2022-11-06T18:32:18.086Z,5.93
2022-11-06T18:34:44.718Z,6.33
2022-11-06T18:37:11.801Z,5.07
2022-11-06T18:39:39.629Z,7.10
2022-11-06T18:42:06.298Z,7.47
2022-11-06T18:44:34.986Z,7.97
2022-11-06T18:47:01.810Z,10.90
2022-11-06T18:49:28.402Z,10.77
2022-11-06T18:51:55.144Z,20.90
2022-11-06T18:54:21.752Z,14.20
2022-11-06T18:56:48.371Z,9.57
2022-11-06T18:59:18.881Z,9.30
2022-11-06T19:01:45.844Z,8.60
2022-11-06T19:04:13.840Z,6.67
2022-11-06T19:06:44.607Z,6.37
2022-11-06T19:09:11.240Z,4.93
2022-11-06T19:11:39.393Z,3.93
2022-11-06T19:14:06.297Z,4.10
2022-11-06T19:16:32.970Z,3.13
2022-11-06T19:21:31.232Z,4.47
2022-11-06T19:24:05.745Z,3.90
2022-11-06T19:26:34.978Z,4.50
2022-11-06T19:29:02.072Z,3.90
2022-11-06T19:31:30.231Z,4.80
2022-11-06T19:34:02.216Z,4.07
2022-11-06T19:36:29.821Z,4.30
2022-11-06T19:38:59.838Z,4.47
2022-11-06T19:41:26.871Z,6.13
2022-11-06T19:43:53.595Z,5.50
2022-11-06T19:46:25.008Z,4.40
2022-11-06T19:48:52.754Z,5.67
2022-11-06T19:51:19.613Z,3.93
2022-11-06T19:53:46.294Z,4.03
2022-11-06T19:56:16.673Z,4.20
2022-11-06T19:58:43.793Z,5.20
2022-11-06T20:01:15.311Z,4.60
2022-11-06T20:03:42.470Z,4.40
2022-11-06T20:06:09.865Z,3.80
2022-11-06T20:08:43.353Z,5.10
2022-11-06T20:11:14.340Z,4.67
2022-11-06T20:13:42.198Z,3.40
2022-11-06T20:16:15.090Z,4.47
2022-11-06T20:18:41.768Z,4.17
2022-11-06T20:21:11.185Z,5.20
2022-11-06T20:23:38.792Z,4.03
2022-11-06T20:26:06.828Z,3.70
2022-11-06T20:28:34.092Z,4.70
2022-11-06T20:31:05.414Z,4.97
2022-11-06T20:33:32.082Z,3.77
2022-11-06T20:35:58.702Z,3.90
2022-11-06T20:38:25.863Z,4.30
2022-11-06T20:40:57.018Z,3.80
2022-11-06T20:43:23.728Z,3.70
2022-11-06T20:45:50.271Z,2.73
2022-11-06T20:48:16.938Z,2.50
2022-11-06T20:50:43.617Z,3.20
2022-11-06T20:53:10.231Z,3.23
2022-11-06T20:55:36.996Z,3.60
2022-11-06T20:58:03.626Z,3.23
2022-11-06T21:00:30.220Z,3.30
2022-11-06T21:03:01.480Z,3.33
2022-11-06T21:05:28.574Z,3.00
2022-11-06T21:07:55.162Z,3.37
2022-11-06T21:10:21.727Z,4.10
2022-11-06T21:12:48.271Z,3.60
2022-11-06T21:15:14.973Z,3.47
2022-11-06T21:17:42.605Z,3.30
2022-11-06T21:20:10.519Z,2.83
2022-11-06T21:22:37.125Z,3.23
2022-11-06T21:25:03.841Z,3.10
2022-11-06T21:27:30.777Z,3.33
2022-11-06T21:29:58.251Z,3.27
2022-11-06T21:32:24.828Z,2.97
2022-11-06T21:34:51.421Z,3.50
2022-11-06T21:37:17.988Z,4.00
2022-11-06T21:39:44.856Z,3.20
2022-11-06T21:42:11.544Z,3.70
2022-11-06T21:44:38.211Z,3.33
2022-11-06T21:47:04.914Z,3.50
2022-11-06T21:49:31.476Z,3.43
2022-11-06T21:52:18.054Z,3.30
2022-11-06T21:55:03.327Z,3.07
2022-11-06T21:57:29.942Z,3.20
2022-11-06T21:59:57.138Z,3.37
2022-11-06T22:02:23.777Z,2.40
2022-11-06T22:04:50.599Z,2.00
2022-11-06T22:07:17.240Z,2.07
2022-11-06T22:09:43.970Z,1.20
2022-11-06T22:12:10.584Z,2.20
2022-11-06T22:14:37.180Z,2.20
2022-11-06T22:17:03.785Z,1.90
2022-11-06T22:19:30.362Z,1.50
2022-11-06T22:21:56.969Z,1.87
2022-11-06T22:24:36.915Z,1.63
2022-11-06T22:27:03.645Z,1.63
2022-11-06T22:29:30.151Z,1.90
2022-11-06T22:31:57.236Z,1.43
2022-11-06T22:34:23.835Z,1.57
2022-11-06T22:36:50.357Z,1.40
2022-11-06T22:39:17.753Z,1.23
2022-11-06T22:41:44.903Z,1.27
2022-11-06T22:44:20.349Z,1.50
2022-11-06T22:49:39.433Z,1.23
2022-11-06T22:52:05.987Z,1.47
2022-11-06T22:54:32.604Z,0.97
2022-11-06T22:57:00.163Z,1.67
2022-11-06T22:59:26.992Z,1.27
2022-11-06T23:01:53.692Z,1.20
2022-11-06T23:04:20.294Z,1.10
2022-11-06T23:06:46.935Z,0.90
2022-11-06T23:09:14.090Z,1.10
2022-11-06T23:11:40.726Z,1.23
2022-11-06T23:14:09.081Z,0.93
2022-11-06T23:16:54.935Z,1.50
2022-11-06T23:19:21.838Z,1.00
2022-11-06T23:21:48.478Z,1.17
2022-11-06T23:24:15.236Z,1.10
2022-11-06T23:26:43.988Z,1.00
2022-11-06T23:29:11.045Z,1.10
2022-11-06T23:31:37.791Z,1.30
2022-11-06T23:34:04.760Z,1.10
2022-11-06T23:36:31.489Z,1.53
2022-11-06T23:38:58.129Z,1.10
2022-11-06T23:41:45.596Z,1.10
2022-11-06T23:44:32.669Z,1.00
2022-11-06T23:47:00.038Z,1.07
2022-11-06T23:49:26.991Z,1.20
2022-11-06T23:51:53.634Z,1.20
2022-11-06T23:54:20.913Z,1.30
2022-11-06T23:56:47.494Z,1.20
2022-11-06T23:59:14.214Z,1.40
